createdAt,value
2023-02-13T00:04:08.131Z,100858.40
2023-02-13T00:09:11.206Z,100863.33
2023-02-13T00:14:13.310Z,100867.52
2023-02-13T00:19:15.088Z,100874.35
2023-02-13T00:24:16.829Z,100870.88
2023-02-13T00:29:18.502Z,100872.30
2023-02-13T00:34:25.421Z,100862.60
2023-02-13T00:39:27.153Z,100857.92
2023-02-13T00:44:28.831Z,100846.19
2023-02-13T00:49:30.502Z,100844.23
2023-02-13T00:54:32.133Z,100845.47
2023-02-13T00:59:33.829Z,100847.78
2023-02-13T01:04:35.616Z,100850.91
2023-02-13T01:09:37.344Z,100845.88
2023-02-13T01:14:39.027Z,100846.92
2023-02-13T01:19:41.428Z,100846.89
2023-02-13T01:24:43.295Z,100844.73
2023-02-13T01:29:44.961Z,100839.88
2023-02-13T01:34:46.736Z,100835.90
2023-02-13T01:39:48.876Z,100831.52
2023-02-13T01:44:59.229Z,100827.60
2023-02-13T01:50:11.277Z,100820.21
2023-02-13T01:55:14.456Z,100811.25
2023-02-13T02:00:17.664Z,100810.85
2023-02-13T02:05:23.403Z,100811.17
2023-02-13T02:10:25.563Z,100806.25
2023-02-13T02:15:27.619Z,100800.27
2023-02-13T02:21:01.020Z,100799.08
2023-02-13T02:26:34.600Z,100795.93
2023-02-13T02:31:57.435Z,100793.06
2023-02-13T02:37:13.041Z,100796.76
2023-02-13T02:42:17.861Z,100798.13
2023-02-13T02:48:02.829Z,100795.13
2023-02-13T02:53:24.472Z,100791.52
2023-02-13T02:58:56.877Z,100794.58
2023-02-13T03:04:20.564Z,100798.71
2023-02-13T03:09:46.388Z,100796.14
2023-02-13T03:14:48.797Z,100796.23
2023-02-13T03:20:37.631Z,100797.43
2023-02-13T03:26:03.630Z,100804.87
2023-02-13T03:31:05.345Z,100803.10
2023-02-13T03:36:31.956Z,100804.42
2023-02-13T03:41:55.117Z,100808.87
2023-02-13T03:47:00.787Z,100804.08
2023-02-13T03:52:09.602Z,100803.38
2023-02-13T03:57:34.388Z,100803.87
2023-02-13T04:02:40.546Z,100795.52
2023-02-13T04:07:42.660Z,100797.07
2023-02-13T04:12:59.811Z,100794.38
2023-02-13T04:18:20.077Z,100792.48
2023-02-13T04:23:22.037Z,100795.49
2023-02-13T04:28:23.836Z,100792.73
2023-02-13T04:33:25.647Z,100783.76
2023-02-13T04:38:27.447Z,100784.61
2023-02-13T04:43:29.213Z,100794.56
2023-02-13T04:48:31.114Z,100786.25
2023-02-13T04:53:32.939Z,100792.54
2023-02-13T04:58:34.761Z,100792.20
2023-02-13T05:03:36.445Z,100784.54
2023-02-13T05:08:38.111Z,100782.02
2023-02-13T05:13:39.844Z,100784.51
2023-02-13T05:18:41.552Z,100781.50
2023-02-13T05:23:43.187Z,100777.61
2023-02-13T05:29:03.514Z,100775.18
2023-02-13T05:34:05.321Z,100778.39
2023-02-13T05:39:07.937Z,100776.77
2023-02-13T05:44:10.537Z,100776.48
2023-02-13T05:49:14.091Z,100755.85
2023-02-13T05:54:15.829Z,100778.71
2023-02-13T05:59:17.676Z,100780.70
2023-02-13T06:04:19.439Z,100786.51
2023-02-13T06:09:21.818Z,100786.82
2023-02-13T06:14:23.559Z,100794.88
2023-02-13T06:19:25.307Z,100798.38
2023-02-13T06:24:27.180Z,100803.80
2023-02-13T06:29:28.991Z,100804.50
2023-02-13T06:34:30.821Z,100802.65
2023-02-13T06:39:32.479Z,100797.79
2023-02-13T06:44:34.299Z,100807.00
2023-02-13T06:49:35.985Z,100801.89
2023-02-13T06:54:47.406Z,100813.58
2023-02-13T06:59:49.612Z,100811.39
2023-02-13T07:04:51.405Z,100812.27
2023-02-13T07:09:53.089Z,100808.16
2023-02-13T07:14:54.768Z,100808.34
2023-02-13T07:19:56.413Z,100807.20
2023-02-13T07:24:59.051Z,100804.34
2023-02-13T07:30:00.711Z,100802.42
2023-02-13T07:35:03.042Z,100808.87
2023-02-13T07:40:06.580Z,100812.65
2023-02-13T07:45:09.128Z,100811.44
2023-02-13T07:50:11.642Z,100814.87
2023-02-13T07:55:13.313Z,100814.35
2023-02-13T08:00:15.627Z,100809.98
2023-02-13T08:05:17.535Z,100813.03
2023-02-13T08:10:38.772Z,100801.46
2023-02-13T08:15:40.787Z,100800.09
2023-02-13T08:20:42.479Z,100801.92
2023-02-13T08:25:44.250Z,100801.83
2023-02-13T08:30:45.998Z,100807.15
2023-02-13T08:35:48.051Z,100805.70
2023-02-13T08:40:49.803Z,100812.40
2023-02-13T08:45:51.488Z,100808.11
2023-02-13T08:50:53.406Z,100810.46
2023-02-13T08:55:57.393Z,100806.93
2023-02-13T09:00:59.567Z,100803.27
2023-02-13T09:06:02.619Z,100805.88
2023-02-13T09:11:06.573Z,100807.73
2023-02-13T09:16:08.520Z,100799.83
2023-02-13T09:21:12.936Z,100803.23
2023-02-13T09:26:16.055Z,100807.80
2023-02-13T09:31:20.762Z,100805.76
2023-02-13T09:36:24.588Z,100812.59
2023-02-13T09:41:45.200Z,100819.65
2023-02-13T09:46:47.225Z,100813.92
2023-02-13T09:51:56.287Z,100808.35
2023-02-13T09:57:07.516Z,100805.23
2023-02-13T10:02:34.109Z,100805.20
2023-02-13T10:07:59.349Z,100806.11
2023-02-13T10:13:23.587Z,100807.16
2023-02-13T10:18:38.192Z,100803.81
2023-02-13T10:23:51.346Z,100790.80
2023-02-13T10:29:23.381Z,100782.59
2023-02-13T10:34:28.769Z,100776.71
2023-02-13T10:39:31.782Z,100772.88
2023-02-13T10:44:41.766Z,100769.19
2023-02-13T10:50:25.039Z,100759.06
2023-02-13T10:55:36.505Z,100753.95
2023-02-13T11:01:00.325Z,100748.20
2023-02-13T11:06:07.963Z,100734.65
2023-02-13T11:11:32.852Z,100734.29
2023-02-13T11:16:46.464Z,100730.99
2023-02-13T11:21:54.775Z,100729.11
2023-02-13T11:27:08.715Z,100725.45
2023-02-13T11:32:22.500Z,100728.41
2023-02-13T11:37:31.594Z,100718.41
2023-02-13T11:42:37.192Z,100720.90
2023-02-13T11:47:42.113Z,100717.38
2023-02-13T11:52:51.964Z,100719.48
2023-02-13T11:58:02.763Z,100714.95
2023-02-13T12:03:26.425Z,100701.90
2023-02-13T12:08:30.106Z,100697.66
2023-02-13T12:13:37.617Z,100697.71
2023-02-13T12:18:47.478Z,100697.47
2023-02-13T12:24:04.489Z,100695.92
2023-02-13T12:29:18.136Z,100688.98
2023-02-13T12:34:41.335Z,100697.33
2023-02-13T12:40:24.707Z,100701.08
2023-02-13T12:45:29.174Z,100698.12
2023-02-13T12:51:02.229Z,100697.43
2023-02-13T12:56:23.996Z,100697.05
2023-02-13T13:01:51.344Z,100698.67
2023-02-13T13:07:05.919Z,100695.43
2023-02-13T13:12:48.347Z,100693.21
2023-02-13T13:18:05.156Z,100687.27
2023-02-13T13:23:29.829Z,100689.38
2023-02-13T13:28:40.569Z,100702.63
2023-02-13T13:33:46.081Z,100702.23
2023-02-13T13:39:09.852Z,100699.34
2023-02-13T13:44:33.787Z,100700.14
2023-02-13T13:49:52.760Z,100697.04
2023-02-13T13:54:57.643Z,100693.30
2023-02-13T14:00:23.860Z,100689.52
2023-02-13T14:05:30.905Z,100689.39
2023-02-13T14:10:32.521Z,100692.52
2023-02-13T14:15:34.244Z,100686.19
2023-02-13T14:20:52.568Z,100678.59
2023-02-13T14:26:33.196Z,100688.51
2023-02-13T14:31:42.213Z,100704.48
2023-02-13T14:37:00.281Z,100710.34
2023-02-13T14:42:04.294Z,100700.83
2023-02-13T14:47:20.094Z,100691.02
2023-02-13T14:52:28.868Z,100675.80
2023-02-13T14:57:37.923Z,100674.05
2023-02-13T15:02:49.494Z,100681.61
2023-02-13T15:07:59.039Z,100673.30
2023-02-13T15:13:02.423Z,100675.70
2023-02-13T15:18:09.947Z,100677.90
2023-02-13T15:23:26.635Z,100672.95
2023-02-13T15:28:29.470Z,100678.49
2023-02-13T15:33:43.994Z,100670.62
2023-02-13T15:38:46.523Z,100671.00
2023-02-13T15:43:56.091Z,100673.13
2023-02-13T15:49:00.084Z,100673.38
2023-02-13T15:54:20.997Z,100664.77
2023-02-13T15:59:25.107Z,100678.76
2023-02-13T16:04:28.225Z,100679.49
2023-02-13T16:09:31.374Z,100678.84
2023-02-13T16:14:44.621Z,100683.55
2023-02-13T16:20:15.493Z,100675.87
2023-02-13T16:25:30.970Z,100662.77
2023-02-13T16:31:05.112Z,100680.01
2023-02-13T16:36:29.347Z,100667.19
2023-02-13T16:41:33.561Z,100669.70
2023-02-13T16:46:41.141Z,100673.71
2023-02-13T16:52:26.749Z,100670.05
2023-02-13T16:57:32.114Z,100677.88
2023-02-13T17:02:39.902Z,100681.71
2023-02-13T17:07:45.068Z,100681.48
2023-02-13T17:12:48.153Z,100680.98
2023-02-13T17:17:56.661Z,100660.92
2023-02-13T17:23:00.998Z,100653.33
2023-02-13T17:28:11.506Z,100652.81
2023-02-13T17:33:23.544Z,100651.31
2023-02-13T17:38:25.212Z,100656.58
2023-02-13T17:43:28.001Z,100643.64
2023-02-13T17:48:30.016Z,100634.81
2023-02-13T17:53:31.950Z,100634.60
2023-02-13T17:58:33.755Z,100648.03
2023-02-13T18:03:35.551Z,100648.70
2023-02-13T18:08:37.266Z,100643.61
2023-02-13T18:13:40.880Z,100605.70
2023-02-13T18:18:42.592Z,100647.18
2023-02-13T18:23:44.374Z,100633.69
2023-02-13T18:28:46.205Z,100624.85
2023-02-13T18:33:47.885Z,100600.76
2023-02-13T18:38:51.279Z,100610.27
2023-02-13T18:43:57.033Z,100638.90
2023-02-13T18:48:59.094Z,100634.00
2023-02-13T18:54:01.181Z,100646.10
2023-02-13T18:59:02.835Z,100651.89
2023-02-13T19:04:05.849Z,100661.91
2023-02-13T19:09:07.859Z,100664.30
2023-02-13T19:14:14.487Z,100661.11
2023-02-13T19:19:17.733Z,100663.91
2023-02-13T19:24:20.114Z,100672.59
2023-02-13T19:29:22.014Z,100672.64
2023-02-13T19:34:23.755Z,100671.72
2023-02-13T19:39:25.441Z,100680.15
2023-02-13T19:44:30.324Z,100684.97
2023-02-13T19:49:32.343Z,100683.55
2023-02-13T19:54:34.308Z,100680.96
2023-02-13T19:59:36.529Z,100678.26
2023-02-13T20:04:39.492Z,100678.10
2023-02-13T20:09:41.392Z,100680.76
2023-02-13T20:14:43.440Z,100677.34
2023-02-13T20:19:45.365Z,100682.30
2023-02-13T20:24:47.481Z,100694.09
2023-02-13T20:29:50.205Z,100706.95
2023-02-13T20:34:59.409Z,100714.52
2023-02-13T20:40:02.211Z,100719.98
2023-02-13T20:45:04.735Z,100725.80
2023-02-13T20:50:07.278Z,100728.17
2023-02-13T20:55:09.299Z,100722.64
2023-02-13T21:00:13.368Z,100725.94
2023-02-13T21:05:15.039Z,100725.45
2023-02-13T21:10:17.924Z,100719.23
2023-02-13T21:15:19.570Z,100716.10
2023-02-13T21:20:21.267Z,100712.10
2023-02-13T21:25:22.920Z,100707.71
2023-02-13T21:30:24.617Z,100703.79
2023-02-13T21:35:26.361Z,100695.01
2023-02-13T21:40:28.017Z,100699.16
2023-02-13T21:45:34.692Z,100705.77
2023-02-13T21:50:37.671Z,100705.27
2023-02-13T21:55:39.323Z,100698.70
2023-02-13T22:00:40.987Z,100689.10
2023-02-13T22:05:46.669Z,100688.30
2023-02-13T22:10:56.466Z,100694.41
2023-02-13T22:16:09.275Z,100692.85
2023-02-13T22:21:18.039Z,100688.48
2023-02-13T22:26:21.214Z,100693.77
2023-02-13T22:31:25.840Z,100696.36
2023-02-13T22:36:27.801Z,100698.38
2023-02-13T22:41:29.873Z,100698.52
2023-02-13T22:46:32.992Z,100666.92
2023-02-13T22:51:36.190Z,100687.64
2023-02-13T22:56:37.871Z,100689.17
2023-02-13T23:01:39.857Z,100688.77
2023-02-13T23:06:41.571Z,100685.77
2023-02-13T23:12:01.714Z,100683.11
2023-02-13T23:17:22.157Z,100686.88
2023-02-13T23:22:23.760Z,100684.22
2023-02-13T23:27:25.384Z,100682.83
2023-02-13T23:32:27.657Z,100686.73
2023-02-13T23:37:29.344Z,100686.40
2023-02-13T23:42:31.065Z,100684.59
2023-02-13T23:47:32.828Z,100684.81
2023-02-13T23:52:34.550Z,100683.77
2023-02-13T23:57:36.316Z,100681.73
